»·PEaware :: SWA5822 KSAN-KPHX

SWA5822 :: KSAN-KPHX

FLIGHT INFORMATION

Flight Status: Arrived
Operator:
Southwest Airlines
More flights by this operator :: More flights under this callsign
Pilot: Max W. (2591)
Aircraft: BOEING 737-200
(B732)
More flights by this aircraft type
Origin: KSAN San Diego Intl-Lindbergh
United States
Destination: KPHX Phoenix Sky Harbor Intl
United States
More flights between these airports :: More routes between these airports
Route: +BRDR7 IPL J18 MOHAK ARLIN3
File this flight plan on PilotEdge
Remarks: NO FMC THIS MIGHT BE BAD
Altitude:
(Current/Filed)
27,000ft
Speed:
(Current/Filed)
450kts
Departed: 09-Jan-18 07:19 PM
Arrived: 09-Jan-18 08:30 PM
Distance/Time
Traveled:
264nm/1:11
Distance/Time
To Go:
Arrived

Flight Plot

Page will automatically refresh every two minutes.


Map Options




Map Legend


Flown Route
Filed Route
Departure Airport
Arrival Airport
Navaid (VOR, NDB)
Fix

Horizontal Profiles

Position Reports

Time Latitude Longitude Heading Altitude Ground
Speed
09-Jan-18 18:54 32.732864 -117.195483 278 22ft 0kts
09-Jan-18 18:55 32.732864 -117.195483 278 22ft 0kts
09-Jan-18 18:56 32.732864 -117.195483 278 22ft 0kts
09-Jan-18 18:57 32.732864 -117.195483 278 22ft 0kts
09-Jan-18 18:58 32.732864 -117.195483 278 22ft 0kts
09-Jan-18 18:59 32.732864 -117.195483 278 22ft 0kts
09-Jan-18 19:00 32.732864 -117.195483 278 22ft 0kts
09-Jan-18 19:01 32.732864 -117.195483 278 22ft 0kts
09-Jan-18 19:02 32.732864 -117.195483 278 22ft 0kts
09-Jan-18 19:03 32.732864 -117.195483 278 22ft 0kts
09-Jan-18 19:04 32.732864 -117.195483 278 22ft 0kts
09-Jan-18 19:05 32.732864 -117.195483 278 22ft 0kts
09-Jan-18 19:06 32.732864 -117.195483 278 22ft 0kts
09-Jan-18 19:07 32.732864 -117.195483 278 22ft 0kts
09-Jan-18 19:08 32.732864 -117.195483 278 22ft 0kts
09-Jan-18 19:09 32.732864 -117.195483 278 22ft 0kts
09-Jan-18 19:10 32.732864 -117.195483 278 22ft 0kts
09-Jan-18 19:11 32.732864 -117.195483 278 22ft 0kts
09-Jan-18 19:12 32.732864 -117.195483 278 22ft 0kts
09-Jan-18 19:13 32.732864 -117.195483 278 22ft 0kts
09-Jan-18 19:14 32.732864 -117.195483 278 22ft 0kts
09-Jan-18 19:15 32.732864 -117.195483 278 22ft 0kts
09-Jan-18 19:16 32.732864 -117.195483 278 22ft 0kts
09-Jan-18 19:17 32.732864 -117.195483 278 22ft 0kts
09-Jan-18 19:18 32.732864 -117.195483 278 22ft 0kts
09-Jan-18 19:19 32.732712 -117.195088 330 22ft 10kts
09-Jan-18 19:20 32.732529 -117.195054 349 22ft 0kts
09-Jan-18 19:21 32.732602 -117.195039 11 22ft 2kts
09-Jan-18 19:22 32.732699 -117.190409 106 22ft 27kts
09-Jan-18 19:23 32.730133 -117.179865 107 20ft 31kts
09-Jan-18 19:24 32.730153 -117.175570 289 27ft 9kts
09-Jan-18 19:25 32.731475 -117.181122 285 22ft 100kts
09-Jan-18 19:26 32.747961 -117.229062 291 2116ft 184kts
09-Jan-18 19:27 32.772769 -117.297004 289 4681ft 238kts
09-Jan-18 19:28 32.798860 -117.370876 289 7389ft 248kts
09-Jan-18 19:29 32.782526 -117.438560 201 9761ft 266kts
09-Jan-18 19:30 32.716918 -117.391467 131 11230ft 337kts
09-Jan-18 19:31 32.658369 -117.301475 131 13568ft 354kts
09-Jan-18 19:32 32.650936 -117.290016 131 13857ft 355kts
09-Jan-18 19:33 32.622268 -117.179027 90 15909ft 377kts
09-Jan-18 19:34 32.614786 -117.053034 95 17005ft 414kts
09-Jan-18 19:35 32.610989 -116.914586 80 18535ft 409kts
09-Jan-18 19:36 32.629453 -116.782620 83 20027ft 416kts
09-Jan-18 19:37 32.644561 -116.644237 85 21115ft 437kts
09-Jan-18 19:38 32.657731 -116.513747 86 22419ft 444kts
09-Jan-18 19:39 32.668164 -116.366214 94 23347ft 457kts
09-Jan-18 19:40 32.674758 -116.218542 87 24384ft 467kts
09-Jan-18 19:41 32.689926 -116.065967 86 25296ft 474kts
09-Jan-18 19:42 32.706495 -115.911259 86 26142ft 480kts
09-Jan-18 19:43 32.722581 -115.758043 83 26884ft 485kts
09-Jan-18 19:44 32.739428 -115.597944 83 26878ft 505kts
09-Jan-18 19:45 32.756673 -115.432999 83 26852ft 521kts
09-Jan-18 19:46 32.767243 -115.266378 92 26848ft 530kts
09-Jan-18 19:47 32.766962 -115.100396 93 26836ft 533kts
09-Jan-18 19:48 32.767595 -114.927272 96 26822ft 506kts
09-Jan-18 19:49 32.767791 -114.767455 96 26843ft 484kts
09-Jan-18 19:50 32.767862 -114.607812 96 26846ft 489kts
09-Jan-18 19:51 32.768480 -114.447919 94 26844ft 495kts
09-Jan-18 19:52 32.771863 -114.291288 96 26836ft 495kts
09-Jan-18 19:53 32.773649 -114.139747 96 26819ft 480kts
09-Jan-18 19:54 32.775417 -113.985941 94 24934ft 460kts
09-Jan-18 19:55 32.800976 -113.844913 80 24821ft 410kts
09-Jan-18 19:56 32.830672 -113.717126 79 24851ft 410kts
09-Jan-18 19:57 32.901632 -113.604291 50 24843ft 450kts
09-Jan-18 19:58 32.983723 -113.489427 51 24834ft 471kts
09-Jan-18 19:59 33.069277 -113.369384 52 24890ft 487kts
09-Jan-18 20:00 33.147790 -113.258388 52 24119ft 464kts
09-Jan-18 20:01 33.225064 -113.149542 52 22115ft 448kts
09-Jan-18 20:02 33.299653 -113.039894 66 19510ft 426kts
09-Jan-18 20:03 33.301615 -112.915253 124 17001ft 364kts
09-Jan-18 20:04 33.271351 -112.805113 85 14440ft 376kts
09-Jan-18 20:05 33.297355 -112.691260 85 11878ft 361kts
09-Jan-18 20:06 33.312868 -112.578678 85 10004ft 318kts
09-Jan-18 20:07 33.324596 -112.479305 105 10011ft 291kts
09-Jan-18 20:08 33.302509 -112.387118 105 10029ft 317kts
09-Jan-18 20:09 33.295822 -112.286507 98 9990ft 319kts
09-Jan-18 20:10 33.295275 -112.190559 97 9986ft 281kts
09-Jan-18 20:11 33.296238 -112.101602 97 10007ft 267kts
09-Jan-18 20:12 33.297647 -112.004138 96 9392ft 299kts
09-Jan-18 20:13 33.299263 -111.905183 95 8376ft 312kts
09-Jan-18 20:14 33.300921 -111.808105 95 7062ft 289kts
09-Jan-18 20:15 33.339947 -111.738817 5 6143ft 281kts
09-Jan-18 20:16 33.412380 -111.738364 332 5784ft 254kts
09-Jan-18 20:17 33.442958 -111.804219 252 4748ft 245kts
09-Jan-18 20:18 33.429797 -111.882787 250 3170ft 221kts
09-Jan-18 20:19 33.433618 -111.953930 248 1930ft 206kts
09-Jan-18 20:20 33.428842 -112.016619 262 2643ft 202kts
09-Jan-18 20:21 33.429464 -112.081491 253 3617ft 205kts
09-Jan-18 20:22 33.389025 -112.119583 200 5540ft 200kts
09-Jan-18 20:23 33.334914 -112.134147 159 7026ft 233kts
09-Jan-18 20:24 33.315328 -112.064408 101 6985ft 235kts
09-Jan-18 20:25 33.313279 -111.989228 99 7037ft 224kts
09-Jan-18 20:26 33.311982 -111.916253 100 7035ft 231kts
09-Jan-18 20:27 33.310681 -111.841063 100 6675ft 232kts
09-Jan-18 20:28 33.309275 -111.765529 98 5813ft 229kts
09-Jan-18 20:29 33.351678 -111.718859 0 4630ft 255kts
09-Jan-18 20:30 33.410425 -111.734200 301 4202ft 207kts
09-Jan-18 20:31 33.427924 -111.794763 262 4049ft 193kts
09-Jan-18 20:32 33.428599 -111.857261 257 3447ft 180kts
09-Jan-18 20:33 33.428729 -111.907889 258 2675ft 139kts
09-Jan-18 20:34 33.429184 -111.954644 258 1942ft 139kts
09-Jan-18 20:35 33.428968 -111.999139 259 1195ft 140kts
09-Jan-18 20:36 33.429111 -112.026870 324 1118ft 21kts
09-Jan-18 20:37 33.432852 -112.024565 92 1118ft 24kts
09-Jan-18 20:38 33.432871 -112.015523 91 1118ft 32kts
09-Jan-18 20:39 33.432850 -112.002618 91 1118ft 50kts

Navigation Log

Ident Type
1. KSAN Airport
2. PGY Navaid
3. BROWS Fix
4. IPL Navaid
5. HEEDS Fix
6. BZA Navaid
7. HOGGZ Fix
8. MOHAK Fix
9. JUDTH Fix
10. HYDRR Fix
11. PAYNT Fix
12. ARLIN Fix
13. AMBRR Fix
14. ALEYS Fix
15. TUKEE Fix
16. KPHX Airport